sensor_id;sensor_type;location;lat;lon;timestamp;P1;durP1;ratioP1;P2;durP2;ratioP2
37459;SDS011;23318;50.966;5.284;2022-12-20T00:01:10;4.00;;;1.20;;
37459;SDS011;23318;50.966;5.284;2022-12-20T00:03:44;2.63;;;1.38;;
37459;SDS011;23318;50.966;5.284;2022-12-20T00:06:10;3.92;;;1.58;;
37459;SDS011;23318;50.966;5.284;2022-12-20T00:08:37;2.00;;;1.52;;
37459;SDS011;23318;50.966;5.284;2022-12-20T00:11:03;1.73;;;1.30;;
37459;SDS011;23318;50.966;5.284;2022-12-20T00:13:31;2.47;;;1.30;;
37459;SDS011;23318;50.966;5.284;2022-12-20T00:16:07;2.78;;;1.33;;
37459;SDS011;23318;50.966;5.284;2022-12-20T00:18:35;4.90;;;1.60;;
37459;SDS011;23318;50.966;5.284;2022-12-20T00:21:01;5.10;;;1.40;;
37459;SDS011;23318;50.966;5.284;2022-12-20T00:23:28;2.15;;;1.38;;
37459;SDS011;23318;50.966;5.284;2022-12-20T00:26:01;1.60;;;1.20;;
37459;SDS011;23318;50.966;5.284;2022-12-20T00:28:31;2.80;;;1.52;;
37459;SDS011;23318;50.966;5.284;2022-12-20T00:30:58;3.35;;;1.40;;
37459;SDS011;23318;50.966;5.284;2022-12-20T00:33:24;2.90;;;1.23;;
37459;SDS011;23318;50.966;5.284;2022-12-20T00:35:50;2.25;;;1.40;;
37459;SDS011;23318;50.966;5.284;2022-12-20T00:38:15;2.00;;;1.27;;
37459;SDS011;23318;50.966;5.284;2022-12-20T00:40:41;3.58;;;1.42;;
37459;SDS011;23318;50.966;5.284;2022-12-20T00:43:07;5.80;;;1.40;;
37459;SDS011;23318;50.966;5.284;2022-12-20T00:45:32;4.32;;;1.50;;
37459;SDS011;23318;50.966;5.284;2022-12-20T00:47:58;7.13;;;1.65;;
37459;SDS011;23318;50.966;5.284;2022-12-20T00:50:24;1.95;;;1.10;;
37459;SDS011;23318;50.966;5.284;2022-12-20T00:52:49;2.33;;;1.40;;
37459;SDS011;23318;50.966;5.284;2022-12-20T00:55:15;8.45;;;1.33;;
37459;SDS011;23318;50.966;5.284;2022-12-20T00:57:41;4.68;;;1.42;;
37459;SDS011;23318;50.966;5.284;2022-12-20T01:00:06;3.78;;;1.70;;
37459;SDS011;23318;50.966;5.284;2022-12-20T01:02:33;6.00;;;2.08;;
37459;SDS011;23318;50.966;5.284;2022-12-20T01:04:58;4.03;;;1.70;;
37459;SDS011;23318;50.966;5.284;2022-12-20T01:07:24;2.65;;;1.50;;
37459;SDS011;23318;50.966;5.284;2022-12-20T01:09:50;4.00;;;1.30;;
37459;SDS011;23318;50.966;5.284;2022-12-20T01:12:15;4.32;;;1.40;;
37459;SDS011;23318;50.966;5.284;2022-12-20T01:14:41;2.97;;;1.17;;
37459;SDS011;23318;50.966;5.284;2022-12-20T01:17:07;2.30;;;1.58;;
37459;SDS011;23318;50.966;5.284;2022-12-20T01:19:33;3.25;;;1.25;;
37459;SDS011;23318;50.966;5.284;2022-12-20T01:21:59;4.15;;;1.60;;
37459;SDS011;23318;50.966;5.284;2022-12-20T01:24:24;2.20;;;1.30;;
37459;SDS011;23318;50.966;5.284;2022-12-20T01:26:50;2.80;;;1.80;;
37459;SDS011;23318;50.966;5.284;2022-12-20T01:29:16;3.05;;;1.30;;
37459;SDS011;23318;50.966;5.284;2022-12-20T01:31:42;3.35;;;1.80;;
37459;SDS011;23318;50.966;5.284;2022-12-20T01:34:08;3.47;;;1.20;;
37459;SDS011;23318;50.966;5.284;2022-12-20T01:36:35;3.00;;;1.65;;
37459;SDS011;23318;50.966;5.284;2022-12-20T01:39:11;4.40;;;1.58;;
37459;SDS011;23318;50.966;5.284;2022-12-20T01:41:39;3.63;;;1.90;;
37459;SDS011;23318;50.966;5.284;2022-12-20T01:44:47;3.03;;;1.77;;
37459;SDS011;23318;50.966;5.284;2022-12-20T01:46:51;6.38;;;1.85;;
37459;SDS011;23318;50.966;5.284;2022-12-20T01:51:44;3.92;;;1.48;;
37459;SDS011;23318;50.966;5.284;2022-12-20T01:54:14;1.33;;;1.15;;
37459;SDS011;23318;50.966;5.284;2022-12-20T01:56:44;4.45;;;1.60;;
37459;SDS011;23318;50.966;5.284;2022-12-20T01:59:15;1.85;;;1.63;;
37459;SDS011;23318;50.966;5.284;2022-12-20T02:01:41;7.13;;;1.83;;
37459;SDS011;23318;50.966;5.284;2022-12-20T02:04:07;4.15;;;1.63;;
37459;SDS011;23318;50.966;5.284;2022-12-20T02:06:34;5.68;;;1.95;;
37459;SDS011;23318;50.966;5.284;2022-12-20T02:09:00;3.10;;;1.63;;
37459;SDS011;23318;50.966;5.284;2022-12-20T02:11:45;3.75;;;1.60;;
37459;SDS011;23318;50.966;5.284;2022-12-20T02:26:13;5.13;;;1.73;;
37459;SDS011;23318;50.966;5.284;2022-12-20T02:29:14;4.68;;;2.10;;
37459;SDS011;23318;50.966;5.284;2022-12-20T02:32:02;2.55;;;1.33;;
37459;SDS011;23318;50.966;5.284;2022-12-20T02:34:36;3.28;;;1.60;;
37459;SDS011;23318;50.966;5.284;2022-12-20T02:37:03;4.88;;;1.55;;
37459;SDS011;23318;50.966;5.284;2022-12-20T02:39:30;6.15;;;1.90;;
37459;SDS011;23318;50.966;5.284;2022-12-20T02:41:59;2.03;;;1.40;;
37459;SDS011;23318;50.966;5.284;2022-12-20T02:44:29;4.72;;;1.70;;
37459;SDS011;23318;50.966;5.284;2022-12-20T02:47:27;5.03;;;1.80;;
37459;SDS011;23318;50.966;5.284;2022-12-20T02:49:57;1.75;;;1.42;;
37459;SDS011;23318;50.966;5.284;2022-12-20T02:52:24;5.03;;;1.65;;
37459;SDS011;23318;50.966;5.284;2022-12-20T02:54:55;3.47;;;1.35;;
37459;SDS011;23318;50.966;5.284;2022-12-20T02:57:26;3.63;;;1.58;;
37459;SDS011;23318;50.966;5.284;2022-12-20T03:00:15;3.30;;;1.50;;
37459;SDS011;23318;50.966;5.284;2022-12-20T03:02:43;2.03;;;1.30;;
37459;SDS011;23318;50.966;5.284;2022-12-20T03:05:29;4.20;;;1.85;;
37459;SDS011;23318;50.966;5.284;2022-12-20T03:07:56;2.38;;;1.33;;
37459;SDS011;23318;50.966;5.284;2022-12-20T03:10:22;3.88;;;1.42;;
37459;SDS011;23318;50.966;5.284;2022-12-20T03:12:48;4.60;;;1.45;;
37459;SDS011;23318;50.966;5.284;2022-12-20T03:15:14;4.50;;;1.70;;
37459;SDS011;23318;50.966;5.284;2022-12-20T03:17:40;3.10;;;1.42;;
37459;SDS011;23318;50.966;5.284;2022-12-20T03:20:06;3.50;;;1.85;;
37459;SDS011;23318;50.966;5.284;2022-12-20T03:22:32;4.22;;;1.60;;
37459;SDS011;23318;50.966;5.284;2022-12-20T03:24:59;2.88;;;1.27;;
37459;SDS011;23318;50.966;5.284;2022-12-20T03:27:24;3.03;;;1.50;;
37459;SDS011;23318;50.966;5.284;2022-12-20T03:29:52;2.72;;;1.30;;
37459;SDS011;23318;50.966;5.284;2022-12-20T03:32:19;2.65;;;1.55;;
37459;SDS011;23318;50.966;5.284;2022-12-20T03:34:45;1.65;;;1.50;;
37459;SDS011;23318;50.966;5.284;2022-12-20T03:37:11;2.65;;;1.67;;
37459;SDS011;23318;50.966;5.284;2022-12-20T03:39:37;2.85;;;1.20;;
37459;SDS011;23318;50.966;5.284;2022-12-20T03:42:02;2.30;;;1.50;;
37459;SDS011;23318;50.966;5.284;2022-12-20T03:44:28;3.92;;;1.83;;
37459;SDS011;23318;50.966;5.284;2022-12-20T03:46:54;2.30;;;1.27;;
37459;SDS011;23318;50.966;5.284;2022-12-20T03:49:20;3.47;;;1.50;;
37459;SDS011;23318;50.966;5.284;2022-12-20T03:51:45;1.98;;;1.23;;
37459;SDS011;23318;50.966;5.284;2022-12-20T03:54:11;3.03;;;1.60;;
37459;SDS011;23318;50.966;5.284;2022-12-20T03:56:37;5.00;;;1.50;;
37459;SDS011;23318;50.966;5.284;2022-12-20T03:59:02;2.70;;;1.33;;
37459;SDS011;23318;50.966;5.284;2022-12-20T04:01:28;5.20;;;1.60;;
37459;SDS011;23318;50.966;5.284;2022-12-20T04:03:54;5.63;;;1.67;;
37459;SDS011;23318;50.966;5.284;2022-12-20T04:06:21;3.47;;;1.73;;
37459;SDS011;23318;50.966;5.284;2022-12-20T04:08:47;5.25;;;1.88;;
37459;SDS011;23318;50.966;5.284;2022-12-20T04:11:13;5.13;;;1.88;;
37459;SDS011;23318;50.966;5.284;2022-12-20T04:13:43;3.47;;;1.70;;
37459;SDS011;23318;50.966;5.284;2022-12-20T04:16:14;4.68;;;1.52;;
37459;SDS011;23318;50.966;5.284;2022-12-20T04:18:42;1.95;;;1.52;;
37459;SDS011;23318;50.966;5.284;2022-12-20T04:21:08;5.80;;;1.45;;
37459;SDS011;23318;50.966;5.284;2022-12-20T04:23:35;9.25;;;2.53;;
37459;SDS011;23318;50.966;5.284;2022-12-20T04:26:02;6.13;;;1.65;;
37459;SDS011;23318;50.966;5.284;2022-12-20T04:28:29;3.53;;;1.95;;
37459;SDS011;23318;50.966;5.284;2022-12-20T04:30:56;3.92;;;1.70;;
37459;SDS011;23318;50.966;5.284;2022-12-20T04:33:22;6.20;;;1.98;;
37459;SDS011;23318;50.966;5.284;2022-12-20T04:35:48;2.25;;;1.40;;
37459;SDS011;23318;50.966;5.284;2022-12-20T04:38:14;4.38;;;1.77;;
37459;SDS011;23318;50.966;5.284;2022-12-20T04:40:40;5.57;;;1.90;;
37459;SDS011;23318;50.966;5.284;2022-12-20T04:43:06;3.58;;;1.70;;
37459;SDS011;23318;50.966;5.284;2022-12-20T04:45:32;4.65;;;1.67;;
37459;SDS011;23318;50.966;5.284;2022-12-20T04:47:58;5.30;;;1.65;;
37459;SDS011;23318;50.966;5.284;2022-12-20T04:50:24;4.00;;;1.40;;
37459;SDS011;23318;50.966;5.284;2022-12-20T04:52:50;2.97;;;1.40;;
37459;SDS011;23318;50.966;5.284;2022-12-20T04:55:38;5.45;;;1.50;;
37459;SDS011;23318;50.966;5.284;2022-12-20T04:58:05;5.00;;;1.52;;
37459;SDS011;23318;50.966;5.284;2022-12-20T05:00:31;4.47;;;1.85;;
37459;SDS011;23318;50.966;5.284;2022-12-20T05:02:57;3.85;;;1.55;;
37459;SDS011;23318;50.966;5.284;2022-12-20T05:05:23;2.38;;;1.40;;
37459;SDS011;23318;50.966;5.284;2022-12-20T05:07:50;3.67;;;1.35;;
37459;SDS011;23318;50.966;5.284;2022-12-20T05:10:16;5.57;;;1.23;;
37459;SDS011;23318;50.966;5.284;2022-12-20T05:12:43;3.30;;;1.50;;
37459;SDS011;23318;50.966;5.284;2022-12-20T05:15:09;3.70;;;1.10;;
37459;SDS011;23318;50.966;5.284;2022-12-20T05:17:35;1.75;;;1.02;;
37459;SDS011;23318;50.966;5.284;2022-12-20T05:20:01;3.05;;;1.20;;
37459;SDS011;23318;50.966;5.284;2022-12-20T05:22:28;4.00;;;1.42;;
37459;SDS011;23318;50.966;5.284;2022-12-20T05:25:12;1.80;;;1.60;;
37459;SDS011;23318;50.966;5.284;2022-12-20T05:27:56;2.90;;;0.98;;
37459;SDS011;23318;50.966;5.284;2022-12-20T05:30:23;2.40;;;1.50;;
37459;SDS011;23318;50.966;5.284;2022-12-20T05:32:49;5.57;;;1.55;;
37459;SDS011;23318;50.966;5.284;2022-12-20T05:35:14;3.85;;;1.30;;
37459;SDS011;23318;50.966;5.284;2022-12-20T05:37:40;1.92;;;1.13;;
37459;SDS011;23318;50.966;5.284;2022-12-20T05:40:06;4.65;;;1.50;;
37459;SDS011;23318;50.966;5.284;2022-12-20T05:42:32;3.58;;;1.27;;
37459;SDS011;23318;50.966;5.284;2022-12-20T05:44:58;2.70;;;1.15;;
37459;SDS011;23318;50.966;5.284;2022-12-20T05:47:25;4.30;;;1.73;;
37459;SDS011;23318;50.966;5.284;2022-12-20T05:49:51;3.08;;;1.02;;
37459;SDS011;23318;50.966;5.284;2022-12-20T05:52:16;2.78;;;1.02;;
37459;SDS011;23318;50.966;5.284;2022-12-20T05:54:42;2.00;;;1.00;;
37459;SDS011;23318;50.966;5.284;2022-12-20T05:57:08;2.40;;;1.10;;
37459;SDS011;23318;50.966;5.284;2022-12-20T05:59:33;4.63;;;1.25;;
37459;SDS011;23318;50.966;5.284;2022-12-20T06:01:59;2.08;;;1.10;;
37459;SDS011;23318;50.966;5.284;2022-12-20T06:04:25;2.88;;;1.08;;
37459;SDS011;23318;50.966;5.284;2022-12-20T06:06:51;4.50;;;1.40;;
37459;SDS011;23318;50.966;5.284;2022-12-20T06:09:17;3.08;;;1.02;;
37459;SDS011;23318;50.966;5.284;2022-12-20T06:11:42;2.67;;;1.05;;
37459;SDS011;23318;50.966;5.284;2022-12-20T06:14:08;1.27;;;0.90;;
37459;SDS011;23318;50.966;5.284;2022-12-20T06:16:34;3.90;;;1.20;;
37459;SDS011;23318;50.966;5.284;2022-12-20T06:19:00;1.67;;;0.90;;
37459;SDS011;23318;50.966;5.284;2022-12-20T06:21:26;3.55;;;1.17;;
37459;SDS011;23318;50.966;5.284;2022-12-20T06:23:52;3.58;;;1.20;;
37459;SDS011;23318;50.966;5.284;2022-12-20T06:26:19;6.53;;;1.23;;
37459;SDS011;23318;50.966;5.284;2022-12-20T06:28:47;3.33;;;1.35;;
37459;SDS011;23318;50.966;5.284;2022-12-20T06:31:16;2.40;;;1.10;;
37459;SDS011;23318;50.966;5.284;2022-12-20T06:33:42;1.50;;;0.95;;
37459;SDS011;23318;50.966;5.284;2022-12-20T06:36:07;3.40;;;1.00;;
37459;SDS011;23318;50.966;5.284;2022-12-20T06:38:33;3.00;;;1.05;;
37459;SDS011;23318;50.966;5.284;2022-12-20T06:40:59;2.67;;;1.10;;
37459;SDS011;23318;50.966;5.284;2022-12-20T06:43:24;2.50;;;1.23;;
37459;SDS011;23318;50.966;5.284;2022-12-20T06:45:51;2.13;;;1.00;;
37459;SDS011;23318;50.966;5.284;2022-12-20T06:48:16;4.05;;;1.10;;
37459;SDS011;23318;50.966;5.284;2022-12-20T06:50:42;2.55;;;1.08;;
37459;SDS011;23318;50.966;5.284;2022-12-20T06:53:07;3.00;;;1.10;;
37459;SDS011;23318;50.966;5.284;2022-12-20T06:55:33;3.13;;;1.35;;
37459;SDS011;23318;50.966;5.284;2022-12-20T06:57:59;2.40;;;1.17;;
37459;SDS011;23318;50.966;5.284;2022-12-20T07:00:24;3.63;;;1.48;;
37459;SDS011;23318;50.966;5.284;2022-12-20T07:02:51;2.20;;;1.08;;
37459;SDS011;23318;50.966;5.284;2022-12-20T07:05:17;3.33;;;1.10;;
37459;SDS011;23318;50.966;5.284;2022-12-20T07:07:42;2.25;;;0.82;;
37459;SDS011;23318;50.966;5.284;2022-12-20T07:10:08;5.50;;;1.10;;
37459;SDS011;23318;50.966;5.284;2022-12-20T07:12:34;5.63;;;1.40;;
37459;SDS011;23318;50.966;5.284;2022-12-20T07:14:59;2.72;;;1.30;;
37459;SDS011;23318;50.966;5.284;2022-12-20T07:17:25;1.52;;;0.93;;
37459;SDS011;23318;50.966;5.284;2022-12-20T07:19:51;2.08;;;1.10;;
37459;SDS011;23318;50.966;5.284;2022-12-20T07:22:16;2.70;;;1.25;;
37459;SDS011;23318;50.966;5.284;2022-12-20T07:24:42;2.35;;;0.98;;
37459;SDS011;23318;50.966;5.284;2022-12-20T07:27:09;3.30;;;0.93;;
37459;SDS011;23318;50.966;5.284;2022-12-20T07:29:34;3.00;;;1.45;;
37459;SDS011;23318;50.966;5.284;2022-12-20T07:32:01;2.90;;;1.20;;
37459;SDS011;23318;50.966;5.284;2022-12-20T07:34:27;4.70;;;1.00;;
37459;SDS011;23318;50.966;5.284;2022-12-20T07:36:52;2.95;;;0.98;;
37459;SDS011;23318;50.966;5.284;2022-12-20T07:39:18;2.08;;;1.30;;
37459;SDS011;23318;50.966;5.284;2022-12-20T07:41:44;2.75;;;1.10;;
37459;SDS011;23318;50.966;5.284;2022-12-20T07:44:10;3.53;;;1.13;;
37459;SDS011;23318;50.966;5.284;2022-12-20T07:46:36;3.08;;;1.25;;
37459;SDS011;23318;50.966;5.284;2022-12-20T07:49:01;1.30;;;1.00;;
37459;SDS011;23318;50.966;5.284;2022-12-20T07:51:28;2.08;;;0.75;;
37459;SDS011;23318;50.966;5.284;2022-12-20T07:54:04;2.50;;;1.20;;
37459;SDS011;23318;50.966;5.284;2022-12-20T07:56:35;4.28;;;1.25;;
37459;SDS011;23318;50.966;5.284;2022-12-20T07:59:04;1.20;;;0.90;;
37459;SDS011;23318;50.966;5.284;2022-12-20T08:01:30;2.55;;;1.20;;
37459;SDS011;23318;50.966;5.284;2022-12-20T08:04:02;1.95;;;0.88;;
37459;SDS011;23318;50.966;5.284;2022-12-20T08:06:32;2.88;;;1.10;;
37459;SDS011;23318;50.966;5.284;2022-12-20T08:09:01;1.85;;;0.90;;
37459;SDS011;23318;50.966;5.284;2022-12-20T08:11:28;4.03;;;1.25;;
37459;SDS011;23318;50.966;5.284;2022-12-20T08:13:56;2.42;;;1.23;;
37459;SDS011;23318;50.966;5.284;2022-12-20T08:16:22;3.40;;;1.13;;
37459;SDS011;23318;50.966;5.284;2022-12-20T08:18:48;3.17;;;1.38;;
37459;SDS011;23318;50.966;5.284;2022-12-20T08:21:14;1.60;;;1.05;;
37459;SDS011;23318;50.966;5.284;2022-12-20T08:23:39;3.28;;;1.30;;
37459;SDS011;23318;50.966;5.284;2022-12-20T08:26:05;2.53;;;1.10;;
37459;SDS011;23318;50.966;5.284;2022-12-20T08:28:31;2.40;;;1.10;;
37459;SDS011;23318;50.966;5.284;2022-12-20T08:31:01;3.65;;;1.60;;
37459;SDS011;23318;50.966;5.284;2022-12-20T08:33:31;3.63;;;1.35;;
37459;SDS011;23318;50.966;5.284;2022-12-20T08:35:58;3.63;;;1.33;;
37459;SDS011;23318;50.966;5.284;2022-12-20T08:38:30;2.95;;;1.27;;
37459;SDS011;23318;50.966;5.284;2022-12-20T08:41:29;2.25;;;1.27;;
37459;SDS011;23318;50.966;5.284;2022-12-20T08:43:49;6.07;;;1.77;;
37459;SDS011;23318;50.966;5.284;2022-12-20T08:46:14;2.20;;;1.30;;
37459;SDS011;23318;50.966;5.284;2022-12-20T08:48:40;3.70;;;1.42;;
37459;SDS011;23318;50.966;5.284;2022-12-20T08:51:07;3.25;;;1.65;;
37459;SDS011;23318;50.966;5.284;2022-12-20T08:53:34;3.83;;;1.25;;
37459;SDS011;23318;50.966;5.284;2022-12-20T08:58:37;4.82;;;1.15;;
37459;SDS011;23318;50.966;5.284;2022-12-20T09:01:04;1.30;;;1.02;;
37459;SDS011;23318;50.966;5.284;2022-12-20T09:03:32;2.92;;;1.13;;
37459;SDS011;23318;50.966;5.284;2022-12-20T09:05:59;4.80;;;1.30;;
37459;SDS011;23318;50.966;5.284;2022-12-20T09:08:24;3.45;;;1.10;;
37459;SDS011;23318;50.966;5.284;2022-12-20T09:10:51;2.13;;;1.15;;
37459;SDS011;23318;50.966;5.284;2022-12-20T09:13:17;2.38;;;1.20;;
37459;SDS011;23318;50.966;5.284;2022-12-20T09:15:43;5.85;;;1.63;;
37459;SDS011;23318;50.966;5.284;2022-12-20T09:18:09;5.32;;;1.52;;
37459;SDS011;23318;50.966;5.284;2022-12-20T09:20:41;6.00;;;1.40;;
37459;SDS011;23318;50.966;5.284;2022-12-20T09:23:08;2.80;;;1.15;;
37459;SDS011;23318;50.966;5.284;2022-12-20T09:25:33;6.30;;;1.67;;
37459;SDS011;23318;50.966;5.284;2022-12-20T09:28:01;5.07;;;1.52;;
37459;SDS011;23318;50.966;5.284;2022-12-20T09:30:27;3.22;;;1.40;;
37459;SDS011;23318;50.966;5.284;2022-12-20T09:32:53;2.42;;;1.42;;
37459;SDS011;23318;50.966;5.284;2022-12-20T09:35:18;2.97;;;1.20;;
37459;SDS011;23318;50.966;5.284;2022-12-20T09:37:44;4.05;;;1.30;;
37459;SDS011;23318;50.966;5.284;2022-12-20T09:40:14;5.30;;;1.42;;
37459;SDS011;23318;50.966;5.284;2022-12-20T09:42:44;2.67;;;1.08;;
37459;SDS011;23318;50.966;5.284;2022-12-20T09:45:13;4.82;;;1.35;;
37459;SDS011;23318;50.966;5.284;2022-12-20T09:47:51;5.68;;;1.20;;
37459;SDS011;23318;50.966;5.284;2022-12-20T09:50:17;3.42;;;1.27;;
37459;SDS011;23318;50.966;5.284;2022-12-20T09:52:54;3.03;;;1.35;;
37459;SDS011;23318;50.966;5.284;2022-12-20T09:55:53;3.67;;;1.48;;
37459;SDS011;23318;50.966;5.284;2022-12-20T10:01:10;1.98;;;1.00;;
37459;SDS011;23318;50.966;5.284;2022-12-20T10:03:44;2.95;;;1.50;;
37459;SDS011;23318;50.966;5.284;2022-12-20T10:09:02;4.35;;;1.50;;
37459;SDS011;23318;50.966;5.284;2022-12-20T10:11:36;2.28;;;1.00;;
37459;SDS011;23318;50.966;5.284;2022-12-20T10:16:52;1.75;;;1.20;;
37459;SDS011;23318;50.966;5.284;2022-12-20T10:22:10;2.38;;;1.38;;
37459;SDS011;23318;50.966;5.284;2022-12-20T10:24:54;2.72;;;1.40;;
37459;SDS011;23318;50.966;5.284;2022-12-20T10:27:25;1.67;;;1.15;;
37459;SDS011;23318;50.966;5.284;2022-12-20T10:29:51;3.40;;;1.55;;
37459;SDS011;23318;50.966;5.284;2022-12-20T10:32:22;5.05;;;1.42;;
37459;SDS011;23318;50.966;5.284;2022-12-20T10:34:54;2.97;;;1.30;;
37459;SDS011;23318;50.966;5.284;2022-12-20T10:37:36;3.00;;;1.50;;
37459;SDS011;23318;50.966;5.284;2022-12-20T10:40:02;3.20;;;1.20;;
37459;SDS011;23318;50.966;5.284;2022-12-20T10:45:03;2.45;;;1.38;;
37459;SDS011;23318;50.966;5.284;2022-12-20T10:47:50;3.58;;;1.70;;
37459;SDS011;23318;50.966;5.284;2022-12-20T10:50:24;4.47;;;1.52;;
37459;SDS011;23318;50.966;5.284;2022-12-20T10:53:11;2.42;;;0.85;;
37459;SDS011;23318;50.966;5.284;2022-12-20T10:55:45;7.80;;;1.70;;
37459;SDS011;23318;50.966;5.284;2022-12-20T10:58:16;3.60;;;1.60;;
37459;SDS011;23318;50.966;5.284;2022-12-20T11:00:51;4.30;;;1.58;;
37459;SDS011;23318;50.966;5.284;2022-12-20T11:03:53;4.22;;;1.70;;
37459;SDS011;23318;50.966;5.284;2022-12-20T11:06:38;4.28;;;1.50;;
37459;SDS011;23318;50.966;5.284;2022-12-20T11:14:26;4.15;;;1.55;;
37459;SDS011;23318;50.966;5.284;2022-12-20T11:16:52;3.70;;;1.75;;
37459;SDS011;23318;50.966;5.284;2022-12-20T11:21:59;5.68;;;2.00;;
37459;SDS011;23318;50.966;5.284;2022-12-20T11:24:44;4.90;;;1.60;;
37459;SDS011;23318;50.966;5.284;2022-12-20T11:27:32;4.75;;;2.05;;
37459;SDS011;23318;50.966;5.284;2022-12-20T11:30:07;4.72;;;1.63;;
37459;SDS011;23318;50.966;5.284;2022-12-20T11:46:33;5.72;;;2.08;;
37459;SDS011;23318;50.966;5.284;2022-12-20T11:54:46;6.55;;;2.50;;
37459;SDS011;23318;50.966;5.284;2022-12-20T11:57:19;9.05;;;2.67;;
37459;SDS011;23318;50.966;5.284;2022-12-20T11:59:53;5.88;;;2.40;;
37459;SDS011;23318;50.966;5.284;2022-12-20T12:08:17;6.13;;;2.83;;
37459;SDS011;23318;50.966;5.284;2022-12-20T12:11:03;4.82;;;2.45;;
37459;SDS011;23318;50.966;5.284;2022-12-20T12:13:35;7.07;;;2.55;;
37459;SDS011;23318;50.966;5.284;2022-12-20T12:16:05;8.65;;;2.55;;
37459;SDS011;23318;50.966;5.284;2022-12-20T12:18:35;4.88;;;2.40;;
37459;SDS011;23318;50.966;5.284;2022-12-20T12:26:11;5.60;;;2.95;;
37459;SDS011;23318;50.966;5.284;2022-12-20T12:29:32;8.80;;;2.85;;
37459;SDS011;23318;50.966;5.284;2022-12-20T12:32:27;7.15;;;3.47;;
37459;SDS011;23318;50.966;5.284;2022-12-20T12:38:14;5.15;;;2.47;;
37459;SDS011;23318;50.966;5.284;2022-12-20T12:46:17;6.32;;;2.50;;
37459;SDS011;23318;50.966;5.284;2022-12-20T12:49:09;8.05;;;2.97;;
37459;SDS011;23318;50.966;5.284;2022-12-20T12:51:51;8.10;;;2.90;;
37459;SDS011;23318;50.966;5.284;2022-12-20T12:54:25;5.47;;;3.00;;
37459;SDS011;23318;50.966;5.284;2022-12-20T12:59:40;9.20;;;3.15;;
37459;SDS011;23318;50.966;5.284;2022-12-20T13:20:25;5.60;;;2.83;;
37459;SDS011;23318;50.966;5.284;2022-12-20T13:25:33;5.63;;;2.95;;
37459;SDS011;23318;50.966;5.284;2022-12-20T13:46:53;6.00;;;3.08;;
37459;SDS011;23318;50.966;5.284;2022-12-20T13:49:39;9.35;;;3.22;;
37459;SDS011;23318;50.966;5.284;2022-12-20T13:52:18;8.70;;;2.92;;
37459;SDS011;23318;50.966;5.284;2022-12-20T13:54:47;10.00;;;3.40;;
37459;SDS011;23318;50.966;5.284;2022-12-20T13:57:17;6.55;;;3.17;;
37459;SDS011;23318;50.966;5.284;2022-12-20T13:59:51;10.38;;;3.50;;
37459;SDS011;23318;50.966;5.284;2022-12-20T14:02:23;6.82;;;3.20;;
37459;SDS011;23318;50.966;5.284;2022-12-20T14:05:32;8.93;;;3.67;;
37459;SDS011;23318;50.966;5.284;2022-12-20T14:07:57;8.60;;;3.72;;
37459;SDS011;23318;50.966;5.284;2022-12-20T14:10:25;5.68;;;2.85;;
37459;SDS011;23318;50.966;5.284;2022-12-20T14:12:53;6.15;;;3.10;;
37459;SDS011;23318;50.966;5.284;2022-12-20T14:15:23;6.60;;;3.17;;
37459;SDS011;23318;50.966;5.284;2022-12-20T14:17:49;5.88;;;3.25;;
37459;SDS011;23318;50.966;5.284;2022-12-20T14:20:16;7.55;;;2.95;;
37459;SDS011;23318;50.966;5.284;2022-12-20T14:25:30;5.45;;;3.03;;
37459;SDS011;23318;50.966;5.284;2022-12-20T14:27:59;7.22;;;3.03;;
37459;SDS011;23318;50.966;5.284;2022-12-20T14:30:26;6.78;;;3.00;;
37459;SDS011;23318;50.966;5.284;2022-12-20T14:32:58;9.02;;;3.42;;
37459;SDS011;23318;50.966;5.284;2022-12-20T14:35:25;4.55;;;2.72;;
37459;SDS011;23318;50.966;5.284;2022-12-20T14:37:55;7.15;;;3.55;;
37459;SDS011;23318;50.966;5.284;2022-12-20T14:40:24;8.05;;;3.42;;
37459;SDS011;23318;50.966;5.284;2022-12-20T14:42:51;7.13;;;3.28;;
37459;SDS011;23318;50.966;5.284;2022-12-20T14:45:19;7.18;;;3.10;;
37459;SDS011;23318;50.966;5.284;2022-12-20T14:50:31;11.07;;;3.22;;
37459;SDS011;23318;50.966;5.284;2022-12-20T14:53:02;8.48;;;3.10;;
37459;SDS011;23318;50.966;5.284;2022-12-20T14:55:30;7.40;;;3.03;;
37459;SDS011;23318;50.966;5.284;2022-12-20T14:57:56;6.57;;;3.03;;
37459;SDS011;23318;50.966;5.284;2022-12-20T15:00:27;9.65;;;2.42;;
37459;SDS011;23318;50.966;5.284;2022-12-20T15:08:12;5.68;;;3.05;;
37459;SDS011;23318;50.966;5.284;2022-12-20T15:10:38;7.95;;;3.25;;
37459;SDS011;23318;50.966;5.284;2022-12-20T15:13:11;7.10;;;3.30;;
37459;SDS011;23318;50.966;5.284;2022-12-20T15:15:39;6.28;;;2.95;;
37459;SDS011;23318;50.966;5.284;2022-12-20T15:18:12;4.25;;;2.50;;
37459;SDS011;23318;50.966;5.284;2022-12-20T15:20:40;6.18;;;3.10;;
37459;SDS011;23318;50.966;5.284;2022-12-20T15:23:25;9.20;;;3.15;;
37459;SDS011;23318;50.966;5.284;2022-12-20T15:25:51;5.07;;;2.92;;
37459;SDS011;23318;50.966;5.284;2022-12-20T15:28:17;5.68;;;2.80;;
37459;SDS011;23318;50.966;5.284;2022-12-20T15:30:45;7.53;;;2.67;;
37459;SDS011;23318;50.966;5.284;2022-12-20T15:33:31;5.25;;;2.95;;
37459;SDS011;23318;50.966;5.284;2022-12-20T15:35:58;8.43;;;3.25;;
37459;SDS011;23318;50.966;5.284;2022-12-20T15:38:24;8.02;;;3.40;;
37459;SDS011;23318;50.966;5.284;2022-12-20T15:40:51;7.93;;;2.78;;
37459;SDS011;23318;50.966;5.284;2022-12-20T15:43:20;4.13;;;2.50;;
37459;SDS011;23318;50.966;5.284;2022-12-20T15:45:51;3.95;;;2.33;;
37459;SDS011;23318;50.966;5.284;2022-12-20T15:48:21;6.07;;;2.25;;
37459;SDS011;23318;50.966;5.284;2022-12-20T15:50:54;10.35;;;2.75;;
37459;SDS011;23318;50.966;5.284;2022-12-20T15:53:23;5.13;;;2.63;;
37459;SDS011;23318;50.966;5.284;2022-12-20T15:55:52;5.20;;;2.05;;
37459;SDS011;23318;50.966;5.284;2022-12-20T15:58:19;6.60;;;2.15;;
37459;SDS011;23318;50.966;5.284;2022-12-20T16:00:45;10.13;;;3.10;;
37459;SDS011;23318;50.966;5.284;2022-12-20T16:03:13;6.68;;;3.08;;
37459;SDS011;23318;50.966;5.284;2022-12-20T16:05:43;14.95;;;2.55;;
37459;SDS011;23318;50.966;5.284;2022-12-20T16:08:10;3.58;;;2.58;;
37459;SDS011;23318;50.966;5.284;2022-12-20T16:10:35;11.55;;;3.08;;
37459;SDS011;23318;50.966;5.284;2022-12-20T16:13:01;10.10;;;3.20;;
37459;SDS011;23318;50.966;5.284;2022-12-20T16:15:27;4.60;;;2.78;;
37459;SDS011;23318;50.966;5.284;2022-12-20T16:17:53;5.70;;;2.47;;
37459;SDS011;23318;50.966;5.284;2022-12-20T16:20:18;8.60;;;3.70;;
37459;SDS011;23318;50.966;5.284;2022-12-20T16:22:44;7.22;;;3.10;;
37459;SDS011;23318;50.966;5.284;2022-12-20T16:25:19;6.88;;;2.80;;
37459;SDS011;23318;50.966;5.284;2022-12-20T16:27:51;8.05;;;2.97;;
37459;SDS011;23318;50.966;5.284;2022-12-20T16:30:17;7.68;;;3.15;;
37459;SDS011;23318;50.966;5.284;2022-12-20T16:32:44;5.57;;;2.85;;
37459;SDS011;23318;50.966;5.284;2022-12-20T16:35:32;6.60;;;3.55;;
37459;SDS011;23318;50.966;5.284;2022-12-20T16:37:57;7.15;;;3.90;;
37459;SDS011;23318;50.966;5.284;2022-12-20T16:40:25;9.07;;;3.85;;
37459;SDS011;23318;50.966;5.284;2022-12-20T16:42:55;7.70;;;3.15;;
37459;SDS011;23318;50.966;5.284;2022-12-20T16:45:23;7.90;;;3.47;;
37459;SDS011;23318;50.966;5.284;2022-12-20T16:47:51;5.15;;;2.85;;
37459;SDS011;23318;50.966;5.284;2022-12-20T16:50:17;8.80;;;3.45;;
37459;SDS011;23318;50.966;5.284;2022-12-20T16:52:43;7.97;;;3.85;;
37459;SDS011;23318;50.966;5.284;2022-12-20T16:55:23;6.35;;;3.00;;
37459;SDS011;23318;50.966;5.284;2022-12-20T16:57:51;8.60;;;3.22;;
37459;SDS011;23318;50.966;5.284;2022-12-20T17:00:19;6.78;;;3.40;;
37459;SDS011;23318;50.966;5.284;2022-12-20T17:02:46;4.93;;;3.00;;
37459;SDS011;23318;50.966;5.284;2022-12-20T17:05:19;8.30;;;3.88;;
37459;SDS011;23318;50.966;5.284;2022-12-20T17:07:54;11.27;;;3.40;;
37459;SDS011;23318;50.966;5.284;2022-12-20T17:10:21;8.57;;;4.05;;
37459;SDS011;23318;50.966;5.284;2022-12-20T17:12:48;6.28;;;3.67;;